Anch, Alaska
Current Conditions -  °F | °C
As of 7:58 AM on Thursday 27 Nov 2014 (Local Time) from PAED Reporting Station
Haze Haze  
Wind Chill: 11°   Ceiling: 1000
Heat Index: 19°   Visibility: 3mi
Dew Point: 18°   Wind: 6mph
Humidity: 93%   Direction: 90°E
Pressure: 30.21"   Gusts: NA
Location:  61.2265°N, 149.62°W
Report Text: PAED 271658Z 09005KT 3SM BR SCT002 BKN010 M07/M08 A3021 RMK AO2A CIG 002 RWY24 SLP229
Loading
Personal Weather Stations






























Interactive Weather Map New forecast layout! Learn more

10-Day Weather Forecast

Advertisements
Track Severe Weather on mobile